sensor_id;sensor_type;location;lat;lon;timestamp;P1;durP1;ratioP1;P2;durP2;ratioP2
39694;SDS011;25367;-35.352;149.036;2022-08-19T00:02:10;6.78;;;0.52;;
39694;SDS011;25367;-35.352;149.036;2022-08-19T00:04:40;3.28;;;0.80;;
39694;SDS011;25367;-35.352;149.036;2022-08-19T00:07:09;1.25;;;0.52;;
39694;SDS011;25367;-35.352;149.036;2022-08-19T00:09:39;1.52;;;0.47;;
39694;SDS011;25367;-35.352;149.036;2022-08-19T00:12:10;2.67;;;0.57;;
39694;SDS011;25367;-35.352;149.036;2022-08-19T00:14:40;0.80;;;0.30;;
39694;SDS011;25367;-35.352;149.036;2022-08-19T00:17:09;1.65;;;0.52;;
39694;SDS011;25367;-35.352;149.036;2022-08-19T00:19:39;1.00;;;0.38;;
39694;SDS011;25367;-35.352;149.036;2022-08-19T00:22:09;1.30;;;0.40;;
39694;SDS011;25367;-35.352;149.036;2022-08-19T00:24:38;5.93;;;0.40;;
39694;SDS011;25367;-35.352;149.036;2022-08-19T00:27:09;1.40;;;0.55;;
39694;SDS011;25367;-35.352;149.036;2022-08-19T00:29:39;1.70;;;0.50;;
39694;SDS011;25367;-35.352;149.036;2022-08-19T00:32:09;0.65;;;0.30;;
39694;SDS011;25367;-35.352;149.036;2022-08-19T00:34:38;1.00;;;0.30;;
39694;SDS011;25367;-35.352;149.036;2022-08-19T00:37:08;1.15;;;0.45;;
39694;SDS011;25367;-35.352;149.036;2022-08-19T00:39:38;1.88;;;0.43;;
39694;SDS011;25367;-35.352;149.036;2022-08-19T00:42:07;0.85;;;0.20;;
39694;SDS011;25367;-35.352;149.036;2022-08-19T00:44:39;0.65;;;0.30;;
39694;SDS011;25367;-35.352;149.036;2022-08-19T00:47:09;0.70;;;0.22;;
39694;SDS011;25367;-35.352;149.036;2022-08-19T00:49:41;1.85;;;0.20;;
39694;SDS011;25367;-35.352;149.036;2022-08-19T00:52:14;0.70;;;0.20;;
39694;SDS011;25367;-35.352;149.036;2022-08-19T00:54:47;1.13;;;0.50;;
39694;SDS011;25367;-35.352;149.036;2022-08-19T00:57:22;0.88;;;0.20;;
39694;SDS011;25367;-35.352;149.036;2022-08-19T00:59:55;1.42;;;0.30;;
39694;SDS011;25367;-35.352;149.036;2022-08-19T01:02:25;0.50;;;0.30;;
39694;SDS011;25367;-35.352;149.036;2022-08-19T01:04:56;1.63;;;0.20;;
39694;SDS011;25367;-35.352;149.036;2022-08-19T01:07:27;1.45;;;0.20;;
39694;SDS011;25367;-35.352;149.036;2022-08-19T01:09:56;0.93;;;0.20;;
39694;SDS011;25367;-35.352;149.036;2022-08-19T01:12:33;0.10;;;0.00;;
39694;SDS011;25367;-35.352;149.036;2022-08-19T01:15:03;1.08;;;0.30;;
39694;SDS011;25367;-35.352;149.036;2022-08-19T01:17:34;2.00;;;0.60;;
39694;SDS011;25367;-35.352;149.036;2022-08-19T01:20:07;1.15;;;0.20;;
39694;SDS011;25367;-35.352;149.036;2022-08-19T01:22:44;0.85;;;0.38;;
39694;SDS011;25367;-35.352;149.036;2022-08-19T01:25:16;0.47;;;0.30;;
39694;SDS011;25367;-35.352;149.036;2022-08-19T01:27:48;0.47;;;0.20;;
39694;SDS011;25367;-35.352;149.036;2022-08-19T01:30:19;1.85;;;0.25;;
39694;SDS011;25367;-35.352;149.036;2022-08-19T01:32:51;0.28;;;0.10;;
39694;SDS011;25367;-35.352;149.036;2022-08-19T01:35:22;2.92;;;0.20;;
39694;SDS011;25367;-35.352;149.036;2022-08-19T01:37:56;2.90;;;0.43;;
39694;SDS011;25367;-35.352;149.036;2022-08-19T01:40:28;0.82;;;0.30;;
39694;SDS011;25367;-35.352;149.036;2022-08-19T01:42:59;0.10;;;0.10;;
39694;SDS011;25367;-35.352;149.036;2022-08-19T01:45:30;1.00;;;0.20;;
39694;SDS011;25367;-35.352;149.036;2022-08-19T01:48:01;0.65;;;0.15;;
39694;SDS011;25367;-35.352;149.036;2022-08-19T01:50:32;2.85;;;0.30;;
39694;SDS011;25367;-35.352;149.036;2022-08-19T01:53:07;0.43;;;0.17;;
39694;SDS011;25367;-35.352;149.036;2022-08-19T01:55:39;1.10;;;0.10;;
39694;SDS011;25367;-35.352;149.036;2022-08-19T01:58:11;0.57;;;0.10;;
39694;SDS011;25367;-35.352;149.036;2022-08-19T02:00:44;1.50;;;0.30;;
39694;SDS011;25367;-35.352;149.036;2022-08-19T02:03:15;1.30;;;0.43;;
39694;SDS011;25367;-35.352;149.036;2022-08-19T02:05:44;0.32;;;0.17;;
39694;SDS011;25367;-35.352;149.036;2022-08-19T02:08:16;2.83;;;0.20;;
39694;SDS011;25367;-35.352;149.036;2022-08-19T02:10:45;0.47;;;0.10;;
39694;SDS011;25367;-35.352;149.036;2022-08-19T02:13:15;0.77;;;0.40;;
39694;SDS011;25367;-35.352;149.036;2022-08-19T02:15:44;1.02;;;0.17;;
39694;SDS011;25367;-35.352;149.036;2022-08-19T02:18:13;0.52;;;0.20;;
39694;SDS011;25367;-35.352;149.036;2022-08-19T02:20:43;3.15;;;0.30;;
39694;SDS011;25367;-35.352;149.036;2022-08-19T02:23:13;0.38;;;0.10;;
39694;SDS011;25367;-35.352;149.036;2022-08-19T02:25:45;1.63;;;0.10;;
39694;SDS011;25367;-35.352;149.036;2022-08-19T02:28:16;0.52;;;0.20;;
39694;SDS011;25367;-35.352;149.036;2022-08-19T02:30:45;0.55;;;0.10;;
39694;SDS011;25367;-35.352;149.036;2022-08-19T02:33:15;2.10;;;0.43;;
39694;SDS011;25367;-35.352;149.036;2022-08-19T02:35:45;0.28;;;0.10;;
39694;SDS011;25367;-35.352;149.036;2022-08-19T02:38:17;0.15;;;0.08;;
39694;SDS011;25367;-35.352;149.036;2022-08-19T02:40:48;0.38;;;0.13;;
39694;SDS011;25367;-35.352;149.036;2022-08-19T02:43:19;0.98;;;0.05;;
39694;SDS011;25367;-35.352;149.036;2022-08-19T02:45:49;0.90;;;0.10;;
39694;SDS011;25367;-35.352;149.036;2022-08-19T02:48:19;0.43;;;0.05;;
39694;SDS011;25367;-35.352;149.036;2022-08-19T02:50:49;1.20;;;0.28;;
39694;SDS011;25367;-35.352;149.036;2022-08-19T02:53:22;0.20;;;0.15;;
39694;SDS011;25367;-35.352;149.036;2022-08-19T02:55:53;0.47;;;0.20;;
39694;SDS011;25367;-35.352;149.036;2022-08-19T02:58:22;1.75;;;0.30;;
39694;SDS011;25367;-35.352;149.036;2022-08-19T03:00:52;0.47;;;0.20;;
39694;SDS011;25367;-35.352;149.036;2022-08-19T03:03:22;0.88;;;0.28;;
39694;SDS011;25367;-35.352;149.036;2022-08-19T03:06:01;0.32;;;0.10;;
39694;SDS011;25367;-35.352;149.036;2022-08-19T03:08:34;0.70;;;0.28;;
39694;SDS011;25367;-35.352;149.036;2022-08-19T03:11:04;0.55;;;0.20;;
39694;SDS011;25367;-35.352;149.036;2022-08-19T03:13:33;0.10;;;0.10;;
39694;SDS011;25367;-35.352;149.036;2022-08-19T03:16:04;0.10;;;0.10;;
39694;SDS011;25367;-35.352;149.036;2022-08-19T03:18:33;0.13;;;0.10;;
39694;SDS011;25367;-35.352;149.036;2022-08-19T03:21:03;0.00;;;0.00;;
39694;SDS011;25367;-35.352;149.036;2022-08-19T03:23:36;0.85;;;0.20;;
39694;SDS011;25367;-35.352;149.036;2022-08-19T03:26:05;0.47;;;0.10;;
39694;SDS011;25367;-35.352;149.036;2022-08-19T03:28:34;0.20;;;0.10;;
39694;SDS011;25367;-35.352;149.036;2022-08-19T03:31:06;0.35;;;0.10;;
39694;SDS011;25367;-35.352;149.036;2022-08-19T03:36:06;0.20;;;0.10;;
39694;SDS011;25367;-35.352;149.036;2022-08-19T03:38:40;0.40;;;0.10;;
39694;SDS011;25367;-35.352;149.036;2022-08-19T03:41:11;0.30;;;0.10;;
39694;SDS011;25367;-35.352;149.036;2022-08-19T03:43:42;0.45;;;0.13;;
39694;SDS011;25367;-35.352;149.036;2022-08-19T03:46:13;0.75;;;0.20;;
39694;SDS011;25367;-35.352;149.036;2022-08-19T03:48:43;0.20;;;0.13;;
39694;SDS011;25367;-35.352;149.036;2022-08-19T03:51:16;0.13;;;0.03;;
39694;SDS011;25367;-35.352;149.036;2022-08-19T03:53:49;0.35;;;0.10;;
39694;SDS011;25367;-35.352;149.036;2022-08-19T03:56:19;0.00;;;0.00;;
39694;SDS011;25367;-35.352;149.036;2022-08-19T03:58:49;0.25;;;0.10;;
39694;SDS011;25367;-35.352;149.036;2022-08-19T04:01:19;0.20;;;0.20;;
39694;SDS011;25367;-35.352;149.036;2022-08-19T04:03:50;0.95;;;0.03;;
39694;SDS011;25367;-35.352;149.036;2022-08-19T04:06:20;0.32;;;0.20;;
39694;SDS011;25367;-35.352;149.036;2022-08-19T04:08:53;0.32;;;0.08;;
39694;SDS011;25367;-35.352;149.036;2022-08-19T04:11:24;0.82;;;0.20;;
39694;SDS011;25367;-35.352;149.036;2022-08-19T04:13:56;1.38;;;0.20;;
39694;SDS011;25367;-35.352;149.036;2022-08-19T04:16:26;0.10;;;0.10;;
39694;SDS011;25367;-35.352;149.036;2022-08-19T04:18:56;0.08;;;0.03;;
39694;SDS011;25367;-35.352;149.036;2022-08-19T04:21:27;1.20;;;0.20;;
39694;SDS011;25367;-35.352;149.036;2022-08-19T04:23:59;0.03;;;0.03;;
39694;SDS011;25367;-35.352;149.036;2022-08-19T04:26:29;0.10;;;0.00;;
39694;SDS011;25367;-35.352;149.036;2022-08-19T04:28:59;3.80;;;0.20;;
39694;SDS011;25367;-35.352;149.036;2022-08-19T04:31:32;0.52;;;0.17;;
39694;SDS011;25367;-35.352;149.036;2022-08-19T04:34:02;0.43;;;0.00;;
39694;SDS011;25367;-35.352;149.036;2022-08-19T04:36:33;0.65;;;0.20;;
39694;SDS011;25367;-35.352;149.036;2022-08-19T04:39:07;0.13;;;0.13;;
39694;SDS011;25367;-35.352;149.036;2022-08-19T04:44:05;0.10;;;0.03;;
39694;SDS011;25367;-35.352;149.036;2022-08-19T04:46:35;1.92;;;0.10;;
39694;SDS011;25367;-35.352;149.036;2022-08-19T04:49:05;0.40;;;0.25;;
39694;SDS011;25367;-35.352;149.036;2022-08-19T04:51:35;0.20;;;0.10;;
39694;SDS011;25367;-35.352;149.036;2022-08-19T04:54:09;0.93;;;0.20;;
39694;SDS011;25367;-35.352;149.036;2022-08-19T04:56:39;0.30;;;0.00;;
39694;SDS011;25367;-35.352;149.036;2022-08-19T04:59:08;0.38;;;0.10;;
39694;SDS011;25367;-35.352;149.036;2022-08-19T05:01:38;0.75;;;0.00;;
39694;SDS011;25367;-35.352;149.036;2022-08-19T05:04:10;0.60;;;0.13;;
39694;SDS011;25367;-35.352;149.036;2022-08-19T05:06:39;0.95;;;0.22;;
39694;SDS011;25367;-35.352;149.036;2022-08-19T05:09:10;0.20;;;0.10;;
39694;SDS011;25367;-35.352;149.036;2022-08-19T05:11:40;0.65;;;0.13;;
39694;SDS011;25367;-35.352;149.036;2022-08-19T05:14:11;0.00;;;0.00;;
39694;SDS011;25367;-35.352;149.036;2022-08-19T05:16:40;0.63;;;0.10;;
39694;SDS011;25367;-35.352;149.036;2022-08-19T05:19:09;0.10;;;0.05;;
39694;SDS011;25367;-35.352;149.036;2022-08-19T05:21:39;0.73;;;0.20;;
39694;SDS011;25367;-35.352;149.036;2022-08-19T05:24:11;0.30;;;0.10;;
39694;SDS011;25367;-35.352;149.036;2022-08-19T05:26:41;0.52;;;0.10;;
39694;SDS011;25367;-35.352;149.036;2022-08-19T05:29:17;0.35;;;0.17;;
39694;SDS011;25367;-35.352;149.036;2022-08-19T05:31:49;1.02;;;0.00;;
39694;SDS011;25367;-35.352;149.036;2022-08-19T05:34:19;1.15;;;0.10;;
39694;SDS011;25367;-35.352;149.036;2022-08-19T05:36:50;0.80;;;0.10;;
39694;SDS011;25367;-35.352;149.036;2022-08-19T05:39:23;0.28;;;0.00;;
39694;SDS011;25367;-35.352;149.036;2022-08-19T05:44:23;0.17;;;0.05;;
39694;SDS011;25367;-35.352;149.036;2022-08-19T05:46:53;0.00;;;0.00;;
39694;SDS011;25367;-35.352;149.036;2022-08-19T05:49:23;0.00;;;0.00;;
39694;SDS011;25367;-35.352;149.036;2022-08-19T05:51:53;0.22;;;0.10;;
39694;SDS011;25367;-35.352;149.036;2022-08-19T05:54:25;0.30;;;0.03;;
39694;SDS011;25367;-35.352;149.036;2022-08-19T05:56:54;0.15;;;0.00;;
39694;SDS011;25367;-35.352;149.036;2022-08-19T05:59:24;0.00;;;0.00;;
39694;SDS011;25367;-35.352;149.036;2022-08-19T06:01:53;0.35;;;0.10;;
39694;SDS011;25367;-35.352;149.036;2022-08-19T06:04:23;0.03;;;0.00;;
39694;SDS011;25367;-35.352;149.036;2022-08-19T06:06:53;0.10;;;0.10;;
39694;SDS011;25367;-35.352;149.036;2022-08-19T06:09:22;0.68;;;0.10;;
39694;SDS011;25367;-35.352;149.036;2022-08-19T06:11:55;0.45;;;0.15;;
39694;SDS011;25367;-35.352;149.036;2022-08-19T06:14:26;0.20;;;0.20;;
39694;SDS011;25367;-35.352;149.036;2022-08-19T06:16:58;0.07;;;0.00;;
39694;SDS011;25367;-35.352;149.036;2022-08-19T06:19:28;0.57;;;0.10;;
39694;SDS011;25367;-35.352;149.036;2022-08-19T06:21:58;0.03;;;0.00;;
39694;SDS011;25367;-35.352;149.036;2022-08-19T06:24:30;0.20;;;0.20;;
39694;SDS011;25367;-35.352;149.036;2022-08-19T06:26:59;0.10;;;0.10;;
39694;SDS011;25367;-35.352;149.036;2022-08-19T06:29:29;0.77;;;0.08;;
39694;SDS011;25367;-35.352;149.036;2022-08-19T06:31:59;0.32;;;0.10;;
39694;SDS011;25367;-35.352;149.036;2022-08-19T06:34:29;0.00;;;0.00;;
39694;SDS011;25367;-35.352;149.036;2022-08-19T06:37:00;0.00;;;0.00;;
39694;SDS011;25367;-35.352;149.036;2022-08-19T06:39:32;0.25;;;0.10;;
39694;SDS011;25367;-35.352;149.036;2022-08-19T06:42:03;0.65;;;0.00;;
39694;SDS011;25367;-35.352;149.036;2022-08-19T06:44:37;0.00;;;0.00;;
39694;SDS011;25367;-35.352;149.036;2022-08-19T06:47:08;0.57;;;0.10;;
39694;SDS011;25367;-35.352;149.036;2022-08-19T06:49:40;0.10;;;0.00;;
39694;SDS011;25367;-35.352;149.036;2022-08-19T06:52:11;0.00;;;0.00;;
39694;SDS011;25367;-35.352;149.036;2022-08-19T06:54:42;0.43;;;0.20;;
39694;SDS011;25367;-35.352;149.036;2022-08-19T06:57:12;1.75;;;0.00;;
39694;SDS011;25367;-35.352;149.036;2022-08-19T06:59:41;0.35;;;0.00;;
39694;SDS011;25367;-35.352;149.036;2022-08-19T07:02:11;0.55;;;0.00;;
39694;SDS011;25367;-35.352;149.036;2022-08-19T07:04:40;0.32;;;0.00;;
39694;SDS011;25367;-35.352;149.036;2022-08-19T07:07:11;0.25;;;0.13;;
39694;SDS011;25367;-35.352;149.036;2022-08-19T07:09:43;0.00;;;0.00;;
39694;SDS011;25367;-35.352;149.036;2022-08-19T07:12:13;0.20;;;0.03;;
39694;SDS011;25367;-35.352;149.036;2022-08-19T07:14:43;0.17;;;0.00;;
39694;SDS011;25367;-35.352;149.036;2022-08-19T07:17:12;0.40;;;0.10;;
39694;SDS011;25367;-35.352;149.036;2022-08-19T07:19:42;0.60;;;0.10;;
39694;SDS011;25367;-35.352;149.036;2022-08-19T07:22:11;0.52;;;0.03;;
39694;SDS011;25367;-35.352;149.036;2022-08-19T07:24:43;0.00;;;0.00;;
39694;SDS011;25367;-35.352;149.036;2022-08-19T07:27:13;0.00;;;0.00;;
39694;SDS011;25367;-35.352;149.036;2022-08-19T07:29:42;0.20;;;0.10;;
39694;SDS011;25367;-35.352;149.036;2022-08-19T07:32:12;0.00;;;0.00;;
39694;SDS011;25367;-35.352;149.036;2022-08-19T07:34:42;0.30;;;0.10;;
39694;SDS011;25367;-35.352;149.036;2022-08-19T07:37:11;0.00;;;0.00;;
39694;SDS011;25367;-35.352;149.036;2022-08-19T07:39:43;0.05;;;0.05;;
39694;SDS011;25367;-35.352;149.036;2022-08-19T07:42:12;1.00;;;0.35;;
39694;SDS011;25367;-35.352;149.036;2022-08-19T07:44:42;0.13;;;0.10;;
39694;SDS011;25367;-35.352;149.036;2022-08-19T07:47:11;1.17;;;0.10;;
39694;SDS011;25367;-35.352;149.036;2022-08-19T07:49:40;0.10;;;0.00;;
39694;SDS011;25367;-35.352;149.036;2022-08-19T07:52:10;1.17;;;0.55;;
39694;SDS011;25367;-35.352;149.036;2022-08-19T07:54:39;0.10;;;0.00;;
39694;SDS011;25367;-35.352;149.036;2022-08-19T07:57:10;0.25;;;0.05;;
39694;SDS011;25367;-35.352;149.036;2022-08-19T07:59:40;0.17;;;0.10;;
39694;SDS011;25367;-35.352;149.036;2022-08-19T08:02:09;0.10;;;0.00;;
39694;SDS011;25367;-35.352;149.036;2022-08-19T08:04:39;0.00;;;0.00;;
39694;SDS011;25367;-35.352;149.036;2022-08-19T08:07:08;0.20;;;0.10;;
39694;SDS011;25367;-35.352;149.036;2022-08-19T08:09:38;0.22;;;0.10;;
39694;SDS011;25367;-35.352;149.036;2022-08-19T08:12:12;0.20;;;0.10;;
39694;SDS011;25367;-35.352;149.036;2022-08-19T08:14:43;0.15;;;0.10;;
39694;SDS011;25367;-35.352;149.036;2022-08-19T08:17:15;0.30;;;0.00;;
39694;SDS011;25367;-35.352;149.036;2022-08-19T08:19:45;3.90;;;0.40;;
39694;SDS011;25367;-35.352;149.036;2022-08-19T08:22:15;1.50;;;0.47;;
39694;SDS011;25367;-35.352;149.036;2022-08-19T08:24:45;2.20;;;0.30;;
39694;SDS011;25367;-35.352;149.036;2022-08-19T08:27:16;4.53;;;0.30;;
39694;SDS011;25367;-35.352;149.036;2022-08-19T08:29:46;0.17;;;0.10;;
39694;SDS011;25367;-35.352;149.036;2022-08-19T08:32:16;1.85;;;0.45;;
39694;SDS011;25367;-35.352;149.036;2022-08-19T08:34:45;24.67;;;2.83;;
39694;SDS011;25367;-35.352;149.036;2022-08-19T08:37:14;20.35;;;2.90;;
39694;SDS011;25367;-35.352;149.036;2022-08-19T08:39:44;16.77;;;2.10;;
39694;SDS011;25367;-35.352;149.036;2022-08-19T08:42:14;6.07;;;1.17;;
39694;SDS011;25367;-35.352;149.036;2022-08-19T08:44:51;9.93;;;1.05;;
39694;SDS011;25367;-35.352;149.036;2022-08-19T08:47:25;7.35;;;1.15;;
39694;SDS011;25367;-35.352;149.036;2022-08-19T08:49:59;7.82;;;1.15;;
39694;SDS011;25367;-35.352;149.036;2022-08-19T08:52:33;7.78;;;1.65;;
39694;SDS011;25367;-35.352;149.036;2022-08-19T08:55:07;13.02;;;1.15;;
39694;SDS011;25367;-35.352;149.036;2022-08-19T08:57:42;10.97;;;1.13;;
39694;SDS011;25367;-35.352;149.036;2022-08-19T09:00:18;5.65;;;0.80;;
39694;SDS011;25367;-35.352;149.036;2022-08-19T09:02:49;6.10;;;1.25;;
39694;SDS011;25367;-35.352;149.036;2022-08-19T09:05:18;8.70;;;1.08;;
39694;SDS011;25367;-35.352;149.036;2022-08-19T09:07:53;8.13;;;1.52;;
39694;SDS011;25367;-35.352;149.036;2022-08-19T09:10:28;12.85;;;1.17;;
39694;SDS011;25367;-35.352;149.036;2022-08-19T09:15:36;4.70;;;1.00;;
39694;SDS011;25367;-35.352;149.036;2022-08-19T09:20:36;3.30;;;0.63;;
39694;SDS011;25367;-35.352;149.036;2022-08-19T09:23:05;10.90;;;1.08;;
39694;SDS011;25367;-35.352;149.036;2022-08-19T09:25:35;14.25;;;1.08;;
39694;SDS011;25367;-35.352;149.036;2022-08-19T09:28:06;3.83;;;0.52;;
39694;SDS011;25367;-35.352;149.036;2022-08-19T09:30:38;4.00;;;0.85;;
39694;SDS011;25367;-35.352;149.036;2022-08-19T09:33:09;5.13;;;0.75;;
39694;SDS011;25367;-35.352;149.036;2022-08-19T09:35:39;3.50;;;0.70;;
39694;SDS011;25367;-35.352;149.036;2022-08-19T09:38:08;4.05;;;0.82;;
39694;SDS011;25367;-35.352;149.036;2022-08-19T09:40:37;4.57;;;0.45;;
39694;SDS011;25367;-35.352;149.036;2022-08-19T09:43:10;11.13;;;1.45;;
39694;SDS011;25367;-35.352;149.036;2022-08-19T09:45:39;4.30;;;0.60;;
39694;SDS011;25367;-35.352;149.036;2022-08-19T09:48:10;5.20;;;1.00;;
39694;SDS011;25367;-35.352;149.036;2022-08-19T09:50:39;5.63;;;0.68;;
39694;SDS011;25367;-35.352;149.036;2022-08-19T09:53:14;5.28;;;1.00;;
39694;SDS011;25367;-35.352;149.036;2022-08-19T09:55:44;5.90;;;1.00;;
39694;SDS011;25367;-35.352;149.036;2022-08-19T09:58:16;3.35;;;0.90;;
39694;SDS011;25367;-35.352;149.036;2022-08-19T10:00:46;4.33;;;0.63;;
39694;SDS011;25367;-35.352;149.036;2022-08-19T10:03:16;4.13;;;0.75;;
39694;SDS011;25367;-35.352;149.036;2022-08-19T10:05:45;4.00;;;0.70;;
39694;SDS011;25367;-35.352;149.036;2022-08-19T10:08:15;4.22;;;0.73;;
39694;SDS011;25367;-35.352;149.036;2022-08-19T10:10:46;3.45;;;0.60;;
39694;SDS011;25367;-35.352;149.036;2022-08-19T10:13:20;8.57;;;0.70;;
39694;SDS011;25367;-35.352;149.036;2022-08-19T10:15:51;3.20;;;0.47;;
39694;SDS011;25367;-35.352;149.036;2022-08-19T10:18:21;5.55;;;0.98;;
39694;SDS011;25367;-35.352;149.036;2022-08-19T10:20:52;2.88;;;0.70;;
39694;SDS011;25367;-35.352;149.036;2022-08-19T10:23:32;4.13;;;0.60;;
39694;SDS011;25367;-35.352;149.036;2022-08-19T10:26:05;4.93;;;0.50;;
39694;SDS011;25367;-35.352;149.036;2022-08-19T10:28:39;1.70;;;0.50;;
39694;SDS011;25367;-35.352;149.036;2022-08-19T10:31:11;1.50;;;0.40;;
39694;SDS011;25367;-35.352;149.036;2022-08-19T10:33:44;0.55;;;0.25;;
39694;SDS011;25367;-35.352;149.036;2022-08-19T10:36:14;1.73;;;0.50;;
39694;SDS011;25367;-35.352;149.036;2022-08-19T10:38:45;0.65;;;0.20;;
39694;SDS011;25367;-35.352;149.036;2022-08-19T10:41:16;0.63;;;0.45;;
39694;SDS011;25367;-35.352;149.036;2022-08-19T10:43:51;1.17;;;0.50;;
39694;SDS011;25367;-35.352;149.036;2022-08-19T10:46:22;1.48;;;0.45;;
39694;SDS011;25367;-35.352;149.036;2022-08-19T10:48:53;1.00;;;0.40;;
39694;SDS011;25367;-35.352;149.036;2022-08-19T10:51:22;1.55;;;0.60;;
39694;SDS011;25367;-35.352;149.036;2022-08-19T10:53:52;1.55;;;0.30;;
39694;SDS011;25367;-35.352;149.036;2022-08-19T10:56:22;0.32;;;0.10;;
39694;SDS011;25367;-35.352;149.036;2022-08-19T10:58:55;7.20;;;0.63;;
39694;SDS011;25367;-35.352;149.036;2022-08-19T11:01:25;1.60;;;0.60;;
39694;SDS011;25367;-35.352;149.036;2022-08-19T11:03:55;4.22;;;0.63;;
39694;SDS011;25367;-35.352;149.036;2022-08-19T11:06:25;10.25;;;0.70;;
39694;SDS011;25367;-35.352;149.036;2022-08-19T11:08:54;2.75;;;0.73;;
39694;SDS011;25367;-35.352;149.036;2022-08-19T11:11:23;7.38;;;0.52;;
39694;SDS011;25367;-35.352;149.036;2022-08-19T11:13:56;2.78;;;0.68;;
39694;SDS011;25367;-35.352;149.036;2022-08-19T11:16:26;2.20;;;0.57;;
39694;SDS011;25367;-35.352;149.036;2022-08-19T11:18:56;2.03;;;0.60;;
39694;SDS011;25367;-35.352;149.036;2022-08-19T11:21:27;4.53;;;0.90;;
39694;SDS011;25367;-35.352;149.036;2022-08-19T11:23:58;3.17;;;1.00;;
39694;SDS011;25367;-35.352;149.036;2022-08-19T11:26:30;3.63;;;0.75;;
39694;SDS011;25367;-35.352;149.036;2022-08-19T11:29:06;2.97;;;0.80;;
39694;SDS011;25367;-35.352;149.036;2022-08-19T11:31:37;1.58;;;0.57;;
39694;SDS011;25367;-35.352;149.036;2022-08-19T11:34:09;1.73;;;0.68;;
39694;SDS011;25367;-35.352;149.036;2022-08-19T11:36:40;0.98;;;0.47;;
39694;SDS011;25367;-35.352;149.036;2022-08-19T11:39:12;1.02;;;0.40;;
39694;SDS011;25367;-35.352;149.036;2022-08-19T11:41:44;1.30;;;0.60;;
39694;SDS011;25367;-35.352;149.036;2022-08-19T11:44:16;0.80;;;0.35;;
39694;SDS011;25367;-35.352;149.036;2022-08-19T11:46:45;0.85;;;0.45;;
39694;SDS011;25367;-35.352;149.036;2022-08-19T11:49:15;1.20;;;0.38;;
39694;SDS011;25367;-35.352;149.036;2022-08-19T11:51:46;1.85;;;0.30;;
39694;SDS011;25367;-35.352;149.036;2022-08-19T11:54:16;2.03;;;0.50;;
39694;SDS011;25367;-35.352;149.036;2022-08-19T11:56:45;1.08;;;0.30;;
39694;SDS011;25367;-35.352;149.036;2022-08-19T11:59:18;1.08;;;0.32;;
39694;SDS011;25367;-35.352;149.036;2022-08-19T12:01:47;0.90;;;0.25;;
39694;SDS011;25367;-35.352;149.036;2022-08-19T12:04:17;3.80;;;0.60;;
39694;SDS011;25367;-35.352;149.036;2022-08-19T12:06:46;3.67;;;0.52;;
39694;SDS011;25367;-35.352;149.036;2022-08-19T12:09:16;1.25;;;0.40;;
39694;SDS011;25367;-35.352;149.036;2022-08-19T12:11:45;1.63;;;0.52;;
39694;SDS011;25367;-35.352;149.036;2022-08-19T12:14:17;3.17;;;0.50;;
39694;SDS011;25367;-35.352;149.036;2022-08-19T12:16:47;1.02;;;0.38;;
39694;SDS011;25367;-35.352;149.036;2022-08-19T12:19:16;1.10;;;0.50;;
39694;SDS011;25367;-35.352;149.036;2022-08-19T12:21:46;0.22;;;0.22;;
39694;SDS011;25367;-35.352;149.036;2022-08-19T12:24:15;2.15;;;0.20;;
39694;SDS011;25367;-35.352;149.036;2022-08-19T12:26:45;0.82;;;0.38;;
39694;SDS011;25367;-35.352;149.036;2022-08-19T12:29:16;0.85;;;0.32;;
39694;SDS011;25367;-35.352;149.036;2022-08-19T12:31:46;1.15;;;0.40;;
39694;SDS011;25367;-35.352;149.036;2022-08-19T12:34:16;1.80;;;0.50;;
39694;SDS011;25367;-35.352;149.036;2022-08-19T12:36:45;0.68;;;0.30;;
39694;SDS011;25367;-35.352;149.036;2022-08-19T12:39:14;0.90;;;0.35;;
39694;SDS011;25367;-35.352;149.036;2022-08-19T12:41:44;0.85;;;0.20;;
39694;SDS011;25367;-35.352;149.036;2022-08-19T12:44:13;0.57;;;0.20;;
39694;SDS011;25367;-35.352;149.036;2022-08-19T12:46:46;1.57;;;0.57;;
39694;SDS011;25367;-35.352;149.036;2022-08-19T12:49:16;1.92;;;0.40;;
39694;SDS011;25367;-35.352;149.036;2022-08-19T12:51:45;0.93;;;0.32;;
39694;SDS011;25367;-35.352;149.036;2022-08-19T12:54:15;0.40;;;0.30;;
39694;SDS011;25367;-35.352;149.036;2022-08-19T12:56:44;0.73;;;0.20;;
39694;SDS011;25367;-35.352;149.036;2022-08-19T12:59:14;0.82;;;0.30;;
39694;SDS011;25367;-35.352;149.036;2022-08-19T13:01:46;1.40;;;0.35;;
39694;SDS011;25367;-35.352;149.036;2022-08-19T13:04:16;0.90;;;0.32;;
39694;SDS011;25367;-35.352;149.036;2022-08-19T13:06:45;2.13;;;0.38;;
39694;SDS011;25367;-35.352;149.036;2022-08-19T13:09:15;1.25;;;0.40;;
39694;SDS011;25367;-35.352;149.036;2022-08-19T13:11:44;0.57;;;0.30;;
39694;SDS011;25367;-35.352;149.036;2022-08-19T13:14:13;0.82;;;0.20;;
39694;SDS011;25367;-35.352;149.036;2022-08-19T13:16:46;4.40;;;0.63;;
39694;SDS011;25367;-35.352;149.036;2022-08-19T13:19:16;1.95;;;0.85;;
39694;SDS011;25367;-35.352;149.036;2022-08-19T13:21:45;2.53;;;0.43;;
39694;SDS011;25367;-35.352;149.036;2022-08-19T13:24:18;0.60;;;0.38;;
39694;SDS011;25367;-35.352;149.036;2022-08-19T13:26:47;2.85;;;0.52;;
39694;SDS011;25367;-35.352;149.036;2022-08-19T13:29:17;3.20;;;0.30;;
39694;SDS011;25367;-35.352;149.036;2022-08-19T13:31:48;0.75;;;0.35;;
39694;SDS011;25367;-35.352;149.036;2022-08-19T13:34:18;1.92;;;0.52;;
39694;SDS011;25367;-35.352;149.036;2022-08-19T13:36:54;0.80;;;0.30;;
39694;SDS011;25367;-35.352;149.036;2022-08-19T13:39:23;1.98;;;0.30;;
39694;SDS011;25367;-35.352;149.036;2022-08-19T13:41:53;1.45;;;0.50;;
39694;SDS011;25367;-35.352;149.036;2022-08-19T13:44:22;0.50;;;0.30;;
39694;SDS011;25367;-35.352;149.036;2022-08-19T13:46:59;1.02;;;0.32;;
39694;SDS011;25367;-35.352;149.036;2022-08-19T13:49:30;1.40;;;0.40;;
39694;SDS011;25367;-35.352;149.036;2022-08-19T13:51:59;0.93;;;0.50;;
39694;SDS011;25367;-35.352;149.036;2022-08-19T13:54:29;0.80;;;0.40;;
39694;SDS011;25367;-35.352;149.036;2022-08-19T13:56:58;2.20;;;0.57;;
39694;SDS011;25367;-35.352;149.036;2022-08-19T13:59:28;1.27;;;0.40;;
39694;SDS011;25367;-35.352;149.036;2022-08-19T14:02:00;2.30;;;0.43;;
39694;SDS011;25367;-35.352;149.036;2022-08-19T14:04:30;0.43;;;0.20;;
39694;SDS011;25367;-35.352;149.036;2022-08-19T14:06:59;1.10;;;0.57;;
39694;SDS011;25367;-35.352;149.036;2022-08-19T14:09:29;1.05;;;0.50;;
39694;SDS011;25367;-35.352;149.036;2022-08-19T14:11:58;1.38;;;0.40;;
39694;SDS011;25367;-35.352;149.036;2022-08-19T14:14:28;0.73;;;0.20;;
39694;SDS011;25367;-35.352;149.036;2022-08-19T14:17:00;0.88;;;0.32;;
39694;SDS011;25367;-35.352;149.036;2022-08-19T14:19:33;1.60;;;0.55;;
39694;SDS011;25367;-35.352;149.036;2022-08-19T14:22:02;1.50;;;0.43;;
39694;SDS011;25367;-35.352;149.036;2022-08-19T14:24:32;0.95;;;0.43;;
39694;SDS011;25367;-35.352;149.036;2022-08-19T14:27:01;3.05;;;0.63;;
39694;SDS011;25367;-35.352;149.036;2022-08-19T14:29:31;0.98;;;0.30;;
39694;SDS011;25367;-35.352;149.036;2022-08-19T14:32:04;1.20;;;0.50;;
39694;SDS011;25367;-35.352;149.036;2022-08-19T14:37:02;0.93;;;0.32;;
39694;SDS011;25367;-35.352;149.036;2022-08-19T14:39:31;0.77;;;0.40;;
39694;SDS011;25367;-35.352;149.036;2022-08-19T14:42:01;0.50;;;0.20;;
39694;SDS011;25367;-35.352;149.036;2022-08-19T14:44:34;1.42;;;0.35;;